createdAt,value
2018-02-15T00:00:08.951Z,86.40
2018-02-15T00:00:42.676Z,86.50
2018-02-15T00:01:16.350Z,86.60
2018-02-15T00:01:50.023Z,86.70
2018-02-15T00:02:23.404Z,86.70
2018-02-15T00:02:57.094Z,86.90
2018-02-15T00:03:30.786Z,87.00
2018-02-15T00:04:04.472Z,87.60
2018-02-15T00:04:38.151Z,87.20
2018-02-15T00:05:12.597Z,87.30
2018-02-15T00:05:46.291Z,87.30
2018-02-15T00:06:19.965Z,87.40
2018-02-15T00:06:53.656Z,87.40
2018-02-15T00:07:27.328Z,88.00
2018-02-15T00:08:01.012Z,87.50
2018-02-15T00:08:35.457Z,87.60
2018-02-15T00:09:09.140Z,87.60
2018-02-15T00:09:42.848Z,87.60
2018-02-15T00:10:16.685Z,87.60
2018-02-15T00:10:51.167Z,87.50
2018-02-15T00:11:24.841Z,87.40
2018-02-15T00:11:58.528Z,87.50
2018-02-15T00:12:32.199Z,87.50
2018-02-15T00:13:05.875Z,87.20
2018-02-15T00:13:39.744Z,87.00
2018-02-15T00:14:14.353Z,86.70
2018-02-15T00:14:48.874Z,86.60
2018-02-15T00:15:23.314Z,86.50
2018-02-15T00:15:57.007Z,86.50
2018-02-15T00:16:30.698Z,86.40
2018-02-15T00:17:04.379Z,86.40
2018-02-15T00:17:38.106Z,86.50
2018-02-15T00:18:11.792Z,86.70
2018-02-15T00:18:45.485Z,86.90
2018-02-15T00:19:19.161Z,87.00
2018-02-15T00:19:52.846Z,87.10
2018-02-15T00:20:26.528Z,87.30
2018-02-15T00:21:00.245Z,87.40
2018-02-15T00:21:33.269Z,87.50
2018-02-15T00:22:06.930Z,87.60
2018-02-15T00:22:42.105Z,88.00
2018-02-15T00:23:15.795Z,87.60
2018-02-15T00:23:49.482Z,87.60
2018-02-15T00:24:23.175Z,87.50
2018-02-15T00:24:56.878Z,87.60
2018-02-15T00:25:30.554Z,87.60
2018-02-15T00:26:03.999Z,87.60
2018-02-15T00:26:38.441Z,87.70
2018-02-15T00:27:12.124Z,87.70
2018-02-15T00:27:45.807Z,87.70
2018-02-15T00:28:19.484Z,87.70
2018-02-15T00:28:53.164Z,87.70
2018-02-15T00:29:27.613Z,87.70
2018-02-15T00:30:01.303Z,87.70
2018-02-15T00:30:34.995Z,87.60
2018-02-15T00:31:08.365Z,87.70
2018-02-15T00:31:42.041Z,87.80
2018-02-15T00:32:15.729Z,87.70
2018-02-15T00:32:49.419Z,87.70
2018-02-15T00:33:23.098Z,87.80
2018-02-15T00:33:57.542Z,87.80
2018-02-15T00:34:31.227Z,87.80
2018-02-15T00:35:04.915Z,87.70
2018-02-15T00:35:38.606Z,87.70
2018-02-15T00:36:12.295Z,87.60
2018-02-15T00:36:45.977Z,87.50
2018-02-15T00:37:19.346Z,87.40
2018-02-15T00:37:53.027Z,87.20
2018-02-15T00:38:26.727Z,87.20
2018-02-15T00:39:00.418Z,87.10
2018-02-15T00:39:34.106Z,87.10
2018-02-15T00:40:07.900Z,87.20
2018-02-15T00:40:41.589Z,87.10
2018-02-15T00:41:15.323Z,87.20
2018-02-15T00:41:49.016Z,87.30
2018-02-15T00:42:22.698Z,87.40
2018-02-15T00:42:56.386Z,87.30
2018-02-15T00:43:30.091Z,87.30
2018-02-15T00:44:03.814Z,87.40
2018-02-15T00:44:38.274Z,87.50
2018-02-15T00:45:11.981Z,87.40
2018-02-15T00:45:45.646Z,87.50
2018-02-15T00:46:19.385Z,87.50
2018-02-15T00:46:53.843Z,87.40
2018-02-15T00:47:27.522Z,87.30
2018-02-15T00:48:01.213Z,87.30
2018-02-15T00:48:34.893Z,87.30
2018-02-15T00:49:08.562Z,87.40
2018-02-15T00:49:43.011Z,87.50
2018-02-15T00:50:16.746Z,87.50
2018-02-15T00:50:51.195Z,87.60
2018-02-15T00:51:24.895Z,87.50
2018-02-15T00:51:58.581Z,87.60
2018-02-15T00:52:32.282Z,87.60
2018-02-15T00:53:06.740Z,87.70
2018-02-15T00:53:41.194Z,87.70
2018-02-15T00:54:14.907Z,88.30
2018-02-15T00:54:48.585Z,87.70
2018-02-15T00:55:23.049Z,87.90
2018-02-15T00:55:56.729Z,87.90
2018-02-15T00:56:31.546Z,87.80
2018-02-15T00:57:05.998Z,87.90
2018-02-15T00:57:39.682Z,87.80
2018-02-15T00:58:13.363Z,87.80
2018-02-15T00:58:47.025Z,87.80
2018-02-15T00:59:21.477Z,87.70
2018-02-15T00:59:55.165Z,87.70
2018-02-15T01:00:28.193Z,87.60
2018-02-15T01:01:02.642Z,87.50
2018-02-15T01:01:36.344Z,87.40
2018-02-15T01:02:10.021Z,87.30
2018-02-15T01:02:43.722Z,87.30
2018-02-15T01:03:17.439Z,87.40
2018-02-15T01:03:51.142Z,87.30
2018-02-15T01:04:25.602Z,87.30
2018-02-15T01:04:59.276Z,87.30
2018-02-15T01:05:32.958Z,87.20
2018-02-15T01:06:06.625Z,87.20
2018-02-15T01:06:41.098Z,87.40
2018-02-15T01:07:14.927Z,87.90
2018-02-15T01:07:49.370Z,87.40
2018-02-15T01:08:23.079Z,87.40
2018-02-15T01:08:56.752Z,87.40
2018-02-15T01:09:30.545Z,87.50
2018-02-15T01:10:04.310Z,88.10
2018-02-15T01:10:37.986Z,87.50
2018-02-15T01:11:12.433Z,87.40
2018-02-15T01:11:46.141Z,87.40
2018-02-15T01:12:19.872Z,87.40
2018-02-15T01:12:54.312Z,87.30
2018-02-15T01:13:27.984Z,87.30
2018-02-15T01:14:02.435Z,87.30
2018-02-15T01:14:36.192Z,87.30
2018-02-15T01:15:09.855Z,87.30
2018-02-15T01:15:43.645Z,87.20
2018-02-15T01:16:18.100Z,87.20
2018-02-15T01:16:51.812Z,87.10
2018-02-15T01:17:25.478Z,87.10
2018-02-15T01:17:59.165Z,87.60
2018-02-15T01:18:32.845Z,87.00
2018-02-15T01:19:06.510Z,87.00
2018-02-15T01:19:41.468Z,87.10
2018-02-15T01:20:15.153Z,87.00
2018-02-15T01:20:48.931Z,86.90
2018-02-15T01:21:22.594Z,86.80
2018-02-15T01:21:57.065Z,86.60
2018-02-15T01:22:30.778Z,86.60
2018-02-15T01:23:04.476Z,86.60
2018-02-15T01:23:38.150Z,86.60
2018-02-15T01:24:11.842Z,86.20
2018-02-15T01:24:45.580Z,86.40
2018-02-15T01:25:19.255Z,86.40
2018-02-15T01:25:54.198Z,86.50
2018-02-15T01:26:27.894Z,86.50
2018-02-15T01:27:01.577Z,86.50
2018-02-15T01:27:35.255Z,86.40
2018-02-15T01:28:08.944Z,86.30
2018-02-15T01:28:42.647Z,86.40
2018-02-15T01:29:16.326Z,86.50
2018-02-15T01:29:49.991Z,86.60
2018-02-15T01:30:24.426Z,86.60
2018-02-15T01:30:58.289Z,86.60
2018-02-15T01:31:32.736Z,87.10
2018-02-15T01:32:06.826Z,86.80
2018-02-15T01:32:40.509Z,86.80
2018-02-15T01:33:14.175Z,86.90
2018-02-15T01:33:47.860Z,86.90
2018-02-15T01:34:22.310Z,86.90
2018-02-15T01:34:56.037Z,86.90
2018-02-15T01:35:29.854Z,86.90
2018-02-15T01:36:04.297Z,86.90
2018-02-15T01:36:37.685Z,86.80
2018-02-15T01:37:11.413Z,86.80
2018-02-15T01:37:45.097Z,86.80
2018-02-15T01:38:18.796Z,86.80
2018-02-15T01:38:52.676Z,86.80
2018-02-15T01:39:26.493Z,87.00
2018-02-15T01:40:00.182Z,86.90
2018-02-15T01:40:33.871Z,87.00
2018-02-15T01:41:07.561Z,87.00
2018-02-15T01:41:41.227Z,87.10
2018-02-15T01:42:15.044Z,87.00
2018-02-15T01:42:49.514Z,87.00
2018-02-15T01:43:23.242Z,87.00
2018-02-15T01:43:56.939Z,87.00
2018-02-15T01:44:30.631Z,87.10
2018-02-15T01:45:04.414Z,87.00
2018-02-15T01:45:38.091Z,87.00
2018-02-15T01:46:11.782Z,87.00
2018-02-15T01:46:45.463Z,87.60
2018-02-15T01:47:19.171Z,86.90
2018-02-15T01:47:52.861Z,86.80
2018-02-15T01:48:26.545Z,86.80
2018-02-15T01:49:00.223Z,86.60
2018-02-15T01:49:33.375Z,86.40
2018-02-15T01:50:07.049Z,86.20
2018-02-15T01:50:41.518Z,85.90
2018-02-15T01:51:15.187Z,85.70
2018-02-15T01:51:48.861Z,85.50
2018-02-15T01:52:22.918Z,85.20
2018-02-15T01:52:57.369Z,85.20
2018-02-15T01:53:31.053Z,85.20
2018-02-15T01:54:04.731Z,85.30
2018-02-15T01:54:38.424Z,85.20
2018-02-15T01:55:12.111Z,85.20
2018-02-15T01:55:45.813Z,85.10
2018-02-15T01:56:19.543Z,85.20
2018-02-15T01:56:53.221Z,85.20
2018-02-15T01:57:27.256Z,85.20
2018-02-15T01:58:01.720Z,85.20
2018-02-15T01:58:35.400Z,85.20
2018-02-15T01:59:09.091Z,85.30
2018-02-15T01:59:42.844Z,85.20
2018-02-15T02:00:16.616Z,85.20
2018-02-15T02:00:51.059Z,85.30
2018-02-15T02:01:24.733Z,85.20
2018-02-15T02:01:58.426Z,85.30
2018-02-15T02:02:32.134Z,85.30
2018-02-15T02:03:05.872Z,85.30
2018-02-15T02:03:40.391Z,85.40
2018-02-15T02:04:14.856Z,85.60
2018-02-15T02:04:48.548Z,85.40
2018-02-15T02:05:22.282Z,85.50
2018-02-15T02:05:56.778Z,85.50
2018-02-15T02:06:31.088Z,85.50
2018-02-15T02:07:04.434Z,85.60
2018-02-15T02:07:38.150Z,85.70
2018-02-15T02:08:11.842Z,85.60
2018-02-15T02:08:45.573Z,85.70
2018-02-15T02:09:19.234Z,85.80
2018-02-15T02:09:53.675Z,86.00
2018-02-15T02:10:27.347Z,85.90
2018-02-15T02:11:01.028Z,86.00
2018-02-15T02:11:35.454Z,86.10
2018-02-15T02:12:09.216Z,86.10
2018-02-15T02:12:43.685Z,86.90
2018-02-15T02:13:17.378Z,86.10
2018-02-15T02:13:51.063Z,86.30
2018-02-15T02:14:24.734Z,86.10
2018-02-15T02:14:58.510Z,86.10
2018-02-15T02:15:32.237Z,86.10
2018-02-15T02:16:05.924Z,86.00
2018-02-15T02:16:39.615Z,85.90
2018-02-15T02:17:13.312Z,85.80
2018-02-15T02:17:47.018Z,85.70
2018-02-15T02:18:20.706Z,85.70
2018-02-15T02:18:54.386Z,85.60
2018-02-15T02:19:27.963Z,85.50
2018-02-15T02:20:01.646Z,85.40
2018-02-15T02:20:35.321Z,85.30
2018-02-15T02:21:08.998Z,85.20
2018-02-15T02:21:42.667Z,85.10
2018-02-15T02:22:17.121Z,85.10
2018-02-15T02:22:50.851Z,85.20
2018-02-15T02:23:24.707Z,85.10
2018-02-15T02:23:58.372Z,85.20
2018-02-15T02:24:32.056Z,85.20
2018-02-15T02:25:05.751Z,85.00
2018-02-15T02:25:39.421Z,85.10
2018-02-15T02:26:13.938Z,84.90
2018-02-15T02:26:48.390Z,84.90
2018-02-15T02:27:22.072Z,84.90
2018-02-15T02:27:55.759Z,84.90
2018-02-15T02:28:29.451Z,84.90
2018-02-15T02:29:03.138Z,84.90
2018-02-15T02:29:36.828Z,85.00
2018-02-15T02:30:10.522Z,85.00
2018-02-15T02:30:44.332Z,85.00
2018-02-15T02:31:18.021Z,85.00
2018-02-15T02:31:51.694Z,84.80
2018-02-15T02:32:25.375Z,84.90
2018-02-15T02:32:59.143Z,84.90
2018-02-15T02:33:32.812Z,85.00
2018-02-15T02:34:07.266Z,85.20
2018-02-15T02:34:40.960Z,85.10
2018-02-15T02:35:14.619Z,85.20
2018-02-15T02:35:48.298Z,85.30
2018-02-15T02:36:22.743Z,85.40
2018-02-15T02:36:56.490Z,85.40
2018-02-15T02:37:30.940Z,85.50
2018-02-15T02:38:04.308Z,85.50
2018-02-15T02:38:37.994Z,85.50
2018-02-15T02:39:11.686Z,85.40
2018-02-15T02:39:45.364Z,85.30
2018-02-15T02:40:18.850Z,85.30
2018-02-15T02:40:52.526Z,85.40
2018-02-15T02:41:28.471Z,85.20
2018-02-15T02:42:02.939Z,85.10
2018-02-15T02:42:36.613Z,85.00
2018-02-15T02:43:10.317Z,85.00
2018-02-15T02:43:43.995Z,85.00
2018-02-15T02:44:17.663Z,85.00
2018-02-15T02:44:51.344Z,85.00
2018-02-15T02:45:25.027Z,85.00
2018-02-15T02:45:58.755Z,84.90
2018-02-15T02:46:32.434Z,84.90
2018-02-15T02:47:06.131Z,84.80
2018-02-15T02:47:39.813Z,84.70
2018-02-15T02:48:13.526Z,84.70
2018-02-15T02:48:47.199Z,84.70
2018-02-15T02:49:20.980Z,84.70
2018-02-15T02:49:54.657Z,84.80
2018-02-15T02:50:28.342Z,84.80
2018-02-15T02:51:02.023Z,84.80
2018-02-15T02:51:36.467Z,85.00
2018-02-15T02:52:10.154Z,85.00
2018-02-15T02:52:43.846Z,85.00
2018-02-15T02:53:17.530Z,85.00
2018-02-15T02:53:51.203Z,85.00
2018-02-15T02:54:24.883Z,84.90
2018-02-15T02:54:58.574Z,84.90
2018-02-15T02:55:32.262Z,84.90
2018-02-15T02:56:05.612Z,84.80
2018-02-15T02:56:39.115Z,84.70
2018-02-15T02:57:13.563Z,84.80
2018-02-15T02:57:47.254Z,84.70
2018-02-15T02:58:20.960Z,84.70
2018-02-15T02:58:54.638Z,84.80
2018-02-15T02:59:28.322Z,84.80
2018-02-15T03:00:02.018Z,84.90
2018-02-15T03:00:35.707Z,84.90
2018-02-15T03:01:09.395Z,84.90
2018-02-15T03:01:43.086Z,84.90
2018-02-15T03:02:16.767Z,85.00
2018-02-15T03:02:50.433Z,85.00
2018-02-15T03:03:25.241Z,85.00
2018-02-15T03:03:59.689Z,85.00
2018-02-15T03:04:33.378Z,85.00
2018-02-15T03:05:07.062Z,85.10
2018-02-15T03:05:40.733Z,85.00
2018-02-15T03:06:14.418Z,85.10
2018-02-15T03:06:48.096Z,85.10
2018-02-15T03:07:21.957Z,85.70
2018-02-15T03:07:55.638Z,85.30
2018-02-15T03:08:29.692Z,85.20
2018-02-15T03:09:03.029Z,85.30
2018-02-15T03:09:36.690Z,85.20
2018-02-15T03:10:10.369Z,85.20
2018-02-15T03:10:44.038Z,85.20
2018-02-15T03:11:17.769Z,85.30
2018-02-15T03:11:51.449Z,85.30
2018-02-15T03:12:25.130Z,85.30
2018-02-15T03:12:58.794Z,85.30
2018-02-15T03:13:33.600Z,85.30
2018-02-15T03:14:08.070Z,85.20
2018-02-15T03:14:41.743Z,85.20
2018-02-15T03:15:15.426Z,85.10
2018-02-15T03:15:49.117Z,85.10
2018-02-15T03:16:22.804Z,85.10
2018-02-15T03:16:56.499Z,85.10
2018-02-15T03:17:30.190Z,85.10
2018-02-15T03:18:03.877Z,85.10
2018-02-15T03:18:37.569Z,85.10
2018-02-15T03:19:11.264Z,85.30
2018-02-15T03:19:44.948Z,85.30
2018-02-15T03:20:18.640Z,85.30
2018-02-15T03:20:52.345Z,85.20
2018-02-15T03:21:26.432Z,85.20
2018-02-15T03:22:00.122Z,85.20
2018-02-15T03:22:33.802Z,85.10
2018-02-15T03:23:07.473Z,85.00
2018-02-15T03:23:41.193Z,84.90
2018-02-15T03:24:14.870Z,84.70
2018-02-15T03:24:48.566Z,84.60
2018-02-15T03:25:22.253Z,84.50
2018-02-15T03:25:55.941Z,84.30
2018-02-15T03:26:29.613Z,84.10
2018-02-15T03:27:03.330Z,84.10
2018-02-15T03:27:37.005Z,83.90
2018-02-15T03:28:10.665Z,83.90
2018-02-15T03:28:45.146Z,83.70
2018-02-15T03:29:18.836Z,83.70
2018-02-15T03:29:52.552Z,83.60
2018-02-15T03:30:26.994Z,83.70
2018-02-15T03:31:00.665Z,83.70
2018-02-15T03:31:34.339Z,83.60
2018-02-15T03:32:08.778Z,83.50
2018-02-15T03:32:42.444Z,83.50
2018-02-15T03:33:16.879Z,83.70
2018-02-15T03:33:50.574Z,83.70
2018-02-15T03:34:24.259Z,83.80
2018-02-15T03:34:57.942Z,83.90
2018-02-15T03:35:31.632Z,83.80
2018-02-15T03:36:05.110Z,83.80
2018-02-15T03:36:38.809Z,83.90
2018-02-15T03:37:12.501Z,84.10
2018-02-15T03:37:46.186Z,84.20
2018-02-15T03:38:19.846Z,84.20
2018-02-15T03:38:54.307Z,84.40
2018-02-15T03:39:28.013Z,84.30
2018-02-15T03:40:01.690Z,84.40
2018-02-15T03:40:35.358Z,84.50
2018-02-15T03:41:09.043Z,84.70
2018-02-15T03:41:42.739Z,84.80
2018-02-15T03:42:16.418Z,84.90
2018-02-15T03:42:50.090Z,84.90
2018-02-15T03:43:24.543Z,85.00
2018-02-15T03:43:58.242Z,84.90
2018-02-15T03:44:31.918Z,85.00
2018-02-15T03:45:05.598Z,85.00
2018-02-15T03:45:39.273Z,85.10
2018-02-15T03:46:12.962Z,85.10
2018-02-15T03:46:46.633Z,85.20
2018-02-15T03:47:21.088Z,85.30
2018-02-15T03:47:54.760Z,85.20
2018-02-15T03:48:28.095Z,85.30
2018-02-15T03:49:02.547Z,85.40
2018-02-15T03:49:36.227Z,85.40
2018-02-15T03:50:09.917Z,85.50
2018-02-15T03:50:43.594Z,85.50
2018-02-15T03:51:18.026Z,85.40
2018-02-15T03:51:51.718Z,85.40
2018-02-15T03:52:25.379Z,85.40
2018-02-15T03:52:59.825Z,85.30
2018-02-15T03:53:33.513Z,85.30
2018-02-15T03:54:07.228Z,85.40
2018-02-15T03:54:40.928Z,85.40
2018-02-15T03:55:14.589Z,85.40
2018-02-15T03:55:48.274Z,85.30
2018-02-15T03:56:21.953Z,85.30
2018-02-15T03:56:55.632Z,85.10
2018-02-15T03:57:29.309Z,85.10
2018-02-15T03:58:02.970Z,85.00
2018-02-15T03:58:36.655Z,84.90
2018-02-15T03:59:10.690Z,85.00
2018-02-15T03:59:45.319Z,84.30
2018-02-15T04:00:18.994Z,84.30
2018-02-15T04:00:52.667Z,84.20
2018-02-15T04:01:27.117Z,83.90
2018-02-15T04:02:00.789Z,83.90
2018-02-15T04:02:34.474Z,83.70
2018-02-15T04:03:08.162Z,83.50
2018-02-15T04:03:41.842Z,83.60
2018-02-15T04:04:15.832Z,83.80
2018-02-15T04:04:50.295Z,83.80
2018-02-15T04:05:23.978Z,83.80
2018-02-15T04:05:57.674Z,84.00
2018-02-15T04:06:31.353Z,84.00
2018-02-15T04:07:05.038Z,83.90
2018-02-15T04:07:38.725Z,84.00
2018-02-15T04:08:12.418Z,84.10
2018-02-15T04:08:46.107Z,84.10
2018-02-15T04:09:19.810Z,84.10
2018-02-15T04:09:53.493Z,84.20
2018-02-15T04:10:27.177Z,84.30
2018-02-15T04:11:00.909Z,84.50
2018-02-15T04:11:34.762Z,84.50
2018-02-15T04:12:08.457Z,84.70
2018-02-15T04:12:42.162Z,84.70
2018-02-15T04:13:15.846Z,84.90
2018-02-15T04:13:49.518Z,84.80
2018-02-15T04:14:23.249Z,84.80
2018-02-15T04:14:56.909Z,84.90
2018-02-15T04:15:30.404Z,85.00
2018-02-15T04:16:04.094Z,85.10
2018-02-15T04:16:37.777Z,85.10
2018-02-15T04:17:11.460Z,85.10
2018-02-15T04:17:45.158Z,85.20
2018-02-15T04:18:18.852Z,85.30
2018-02-15T04:18:52.528Z,85.40
2018-02-15T04:19:26.234Z,85.40
2018-02-15T04:19:59.927Z,85.40
2018-02-15T04:20:33.614Z,85.50
2018-02-15T04:21:07.286Z,85.50
2018-02-15T04:21:40.970Z,85.60
2018-02-15T04:22:14.658Z,85.60
2018-02-15T04:22:48.331Z,85.50
2018-02-15T04:23:22.003Z,85.50
2018-02-15T04:23:56.109Z,85.50
2018-02-15T04:24:30.556Z,85.60
2018-02-15T04:25:04.235Z,85.50
2018-02-15T04:25:37.910Z,85.50
2018-02-15T04:26:11.576Z,85.50
2018-02-15T04:26:46.023Z,85.50
2018-02-15T04:27:19.698Z,85.50
2018-02-15T04:27:53.374Z,85.40
2018-02-15T04:28:27.110Z,85.50
2018-02-15T04:29:01.710Z,85.40
2018-02-15T04:29:35.426Z,85.40
2018-02-15T04:30:08.779Z,85.40
2018-02-15T04:30:42.462Z,85.20
2018-02-15T04:31:16.160Z,85.10
2018-02-15T04:31:49.880Z,85.10
2018-02-15T04:32:23.542Z,85.00
2018-02-15T04:32:57.206Z,85.00
2018-02-15T04:33:30.885Z,85.50
2018-02-15T04:34:05.333Z,84.80
2018-02-15T04:34:39.420Z,84.80
2018-02-15T04:35:13.119Z,84.80
2018-02-15T04:35:46.799Z,84.80
2018-02-15T04:36:20.511Z,84.80
2018-02-15T04:36:54.190Z,85.40
2018-02-15T04:37:27.866Z,84.80
2018-02-15T04:38:01.543Z,84.80
2018-02-15T04:38:35.223Z,84.80
2018-02-15T04:39:09.665Z,84.80
2018-02-15T04:39:43.735Z,84.80
2018-02-15T04:40:17.418Z,84.70
2018-02-15T04:40:51.866Z,84.70
2018-02-15T04:41:25.537Z,84.70
2018-02-15T04:41:59.250Z,84.70
2018-02-15T04:42:32.933Z,84.80
2018-02-15T04:43:06.605Z,84.80
2018-02-15T04:43:40.285Z,84.70
2018-02-15T04:44:14.102Z,84.60
2018-02-15T04:44:48.201Z,84.50
2018-02-15T04:45:22.803Z,84.50
2018-02-15T04:45:56.477Z,84.50
2018-02-15T04:46:30.162Z,84.50
2018-02-15T04:47:03.831Z,84.50
2018-02-15T04:47:38.285Z,84.50
2018-02-15T04:48:11.950Z,84.50
2018-02-15T04:48:46.386Z,84.50
2018-02-15T04:49:20.057Z,84.50
2018-02-15T04:49:53.763Z,84.60
2018-02-15T04:50:27.426Z,84.60
2018-02-15T04:51:01.858Z,84.70
2018-02-15T04:51:35.534Z,84.70
2018-02-15T04:52:09.205Z,84.70
2018-02-15T04:52:43.645Z,84.70
2018-02-15T04:53:17.306Z,84.60
2018-02-15T04:53:51.798Z,84.70
2018-02-15T04:54:26.241Z,84.70
2018-02-15T04:54:59.945Z,84.70
2018-02-15T04:55:33.621Z,84.70
2018-02-15T04:56:07.303Z,84.70
2018-02-15T04:56:40.987Z,84.60
2018-02-15T04:57:14.656Z,84.60
2018-02-15T04:57:49.090Z,84.50
2018-02-15T04:58:22.775Z,84.50
2018-02-15T04:58:56.453Z,84.50
2018-02-15T04:59:30.130Z,84.50
2018-02-15T05:00:04.263Z,84.20
2018-02-15T05:00:37.950Z,84.20
2018-02-15T05:01:11.628Z,84.10
2018-02-15T05:01:45.356Z,84.00
2018-02-15T05:02:19.034Z,83.90
2018-02-15T05:02:52.703Z,83.90
2018-02-15T05:03:26.388Z,83.90
2018-02-15T05:04:01.037Z,83.90
2018-02-15T05:04:34.719Z,84.00
2018-02-15T05:05:08.412Z,83.90
2018-02-15T05:05:42.094Z,83.90
2018-02-15T05:06:15.773Z,83.90
2018-02-15T05:06:49.448Z,83.90
2018-02-15T05:07:23.130Z,84.00
2018-02-15T05:07:57.570Z,84.10
2018-02-15T05:08:31.250Z,84.10
2018-02-15T05:09:04.098Z,84.10
2018-02-15T05:09:38.533Z,84.20
2018-02-15T05:10:12.213Z,84.10
2018-02-15T05:10:45.891Z,84.10
2018-02-15T05:11:19.574Z,84.00
2018-02-15T05:11:54.025Z,84.00
2018-02-15T05:12:27.713Z,84.00
2018-02-15T05:13:01.392Z,84.10
2018-02-15T05:13:35.069Z,84.10
2018-02-15T05:14:08.741Z,84.10
2018-02-15T05:14:43.194Z,84.10
2018-02-15T05:15:16.885Z,84.00
2018-02-15T05:15:50.563Z,83.90
2018-02-15T05:16:24.233Z,83.90
2018-02-15T05:16:58.106Z,83.90
2018-02-15T05:17:32.549Z,83.90
2018-02-15T05:18:06.225Z,83.90
2018-02-15T05:18:40.866Z,83.90
2018-02-15T05:19:14.546Z,83.90
2018-02-15T05:19:48.233Z,84.00
2018-02-15T05:20:21.923Z,84.10
2018-02-15T05:20:55.804Z,84.20
2018-02-15T05:21:29.474Z,84.20
2018-02-15T05:22:03.914Z,84.10
2018-02-15T05:22:37.593Z,84.10
2018-02-15T05:23:11.286Z,84.10
2018-02-15T05:23:44.966Z,84.10
2018-02-15T05:24:18.646Z,84.10
2018-02-15T05:24:52.319Z,84.10
2018-02-15T05:25:26.788Z,84.20
2018-02-15T05:26:00.484Z,84.20
2018-02-15T05:26:34.169Z,84.20
2018-02-15T05:27:07.845Z,84.20
2018-02-15T05:27:41.560Z,84.20
2018-02-15T05:28:15.236Z,84.40
2018-02-15T05:28:48.926Z,84.40
2018-02-15T05:29:22.598Z,84.50
2018-02-15T05:29:56.283Z,84.50
2018-02-15T05:30:30.019Z,84.40
2018-02-15T05:31:03.692Z,84.50
2018-02-15T05:31:37.365Z,84.50
2018-02-15T05:32:11.045Z,84.60
2018-02-15T05:32:44.718Z,84.70
2018-02-15T05:33:18.402Z,84.70
2018-02-15T05:33:52.102Z,84.80
2018-02-15T05:34:25.774Z,84.90
2018-02-15T05:35:00.210Z,85.20
2018-02-15T05:35:33.976Z,85.10
2018-02-15T05:36:07.660Z,85.10
2018-02-15T05:36:42.107Z,85.20
2018-02-15T05:37:15.810Z,85.10
2018-02-15T05:37:49.488Z,85.10
2018-02-15T05:38:22.831Z,85.10
2018-02-15T05:38:56.962Z,85.00
2018-02-15T05:39:30.637Z,85.10
2018-02-15T05:40:04.303Z,85.30
2018-02-15T05:40:38.770Z,85.30
2018-02-15T05:41:12.437Z,85.30
2018-02-15T05:41:46.105Z,85.40
2018-02-15T05:42:19.802Z,85.50
2018-02-15T05:42:53.493Z,86.10
2018-02-15T05:43:27.178Z,85.50
2018-02-15T05:44:00.871Z,85.50
2018-02-15T05:44:34.545Z,85.50
2018-02-15T05:45:08.262Z,85.60
2018-02-15T05:45:42.002Z,85.60
2018-02-15T05:46:15.670Z,85.60
2018-02-15T05:46:49.358Z,85.50
2018-02-15T05:47:23.030Z,85.50
2018-02-15T05:47:56.716Z,85.50
2018-02-15T05:48:30.386Z,85.50
2018-02-15T05:49:04.066Z,85.60
2018-02-15T05:49:37.742Z,85.60
2018-02-15T05:50:12.186Z,85.50
2018-02-15T05:50:45.887Z,85.50
2018-02-15T05:51:19.559Z,85.50
2018-02-15T05:51:53.233Z,85.50
2018-02-15T05:52:27.727Z,85.50
2018-02-15T05:53:02.179Z,85.10
2018-02-15T05:53:35.847Z,85.50
2018-02-15T05:54:09.527Z,85.40
2018-02-15T05:54:43.968Z,85.50
2018-02-15T05:55:17.644Z,85.50
2018-02-15T05:55:51.349Z,85.50
2018-02-15T05:56:25.044Z,85.40
2018-02-15T05:56:58.718Z,85.40
2018-02-15T05:57:32.430Z,85.40
2018-02-15T05:58:06.126Z,85.30
2018-02-15T05:58:39.800Z,85.30
2018-02-15T05:59:13.289Z,85.30
2018-02-15T05:59:46.983Z,85.30
2018-02-15T06:00:20.669Z,85.30
2018-02-15T06:00:55.156Z,85.30
2018-02-15T06:01:28.825Z,85.30
2018-02-15T06:02:03.258Z,85.30
2018-02-15T06:02:36.945Z,85.30
2018-02-15T06:03:10.703Z,85.40
2018-02-15T06:03:45.162Z,85.30
2018-02-15T06:04:18.826Z,85.30
2018-02-15T06:04:52.501Z,85.20
2018-02-15T06:05:26.178Z,85.10
2018-02-15T06:05:59.887Z,85.10
2018-02-15T06:06:33.563Z,85.00
2018-02-15T06:07:08.022Z,84.90
2018-02-15T06:07:41.718Z,84.90
2018-02-15T06:08:15.413Z,84.90
2018-02-15T06:08:49.086Z,84.90
2018-02-15T06:09:22.759Z,84.90
2018-02-15T06:09:56.439Z,84.90
2018-02-15T06:10:30.124Z,84.80
2018-02-15T06:11:03.821Z,84.60
2018-02-15T06:11:37.499Z,84.50
2018-02-15T06:12:11.933Z,84.40
2018-02-15T06:12:45.606Z,84.40
2018-02-15T06:13:19.285Z,84.40
2018-02-15T06:13:52.962Z,84.30
2018-02-15T06:14:27.418Z,84.10
2018-02-15T06:15:01.107Z,84.10
2018-02-15T06:15:34.789Z,84.10
2018-02-15T06:16:08.542Z,84.10
2018-02-15T06:16:43.003Z,84.00
2018-02-15T06:17:16.658Z,83.90
2018-02-15T06:17:50.338Z,83.80
2018-02-15T06:18:24.031Z,83.80
2018-02-15T06:18:57.739Z,83.70
2018-02-15T06:19:31.436Z,83.70
2018-02-15T06:20:15.264Z,83.60
2018-02-15T06:20:49.029Z,84.20
2018-02-15T06:21:22.768Z,83.80
2018-02-15T06:21:56.449Z,83.80
2018-02-15T06:22:30.133Z,84.00
2018-02-15T06:23:03.828Z,84.10
2018-02-15T06:23:37.516Z,84.20
2018-02-15T06:24:11.226Z,84.20
2018-02-15T06:24:44.909Z,84.20
2018-02-15T06:25:18.583Z,84.00
2018-02-15T06:25:52.245Z,84.00
2018-02-15T06:26:26.234Z,84.00
2018-02-15T06:26:59.922Z,83.90
2018-02-15T06:27:34.369Z,83.80
2018-02-15T06:28:08.086Z,83.80
2018-02-15T06:28:41.913Z,83.70
2018-02-15T06:29:16.345Z,84.40
2018-02-15T06:29:50.017Z,83.80
2018-02-15T06:30:23.699Z,83.80
2018-02-15T06:30:58.140Z,83.80
2018-02-15T06:31:32.229Z,83.70
2018-02-15T06:32:05.900Z,83.70
2018-02-15T06:32:39.242Z,83.80
2018-02-15T06:33:12.906Z,83.80
2018-02-15T06:33:46.579Z,83.90
2018-02-15T06:34:20.249Z,84.00
2018-02-15T06:34:53.941Z,83.90
2018-02-15T06:35:28.380Z,83.80
2018-02-15T06:36:02.068Z,83.80
2018-02-15T06:36:35.556Z,83.80
2018-02-15T06:37:09.229Z,83.90
2018-02-15T06:37:42.905Z,84.00
2018-02-15T06:38:16.588Z,84.00
2018-02-15T06:38:51.046Z,83.90
2018-02-15T06:39:24.725Z,83.90
2018-02-15T06:39:58.414Z,83.80
2018-02-15T06:40:32.082Z,83.70
2018-02-15T06:41:05.752Z,83.80
2018-02-15T06:41:40.238Z,83.90
2018-02-15T06:42:13.921Z,83.90
2018-02-15T06:42:47.597Z,84.20
2018-02-15T06:43:21.282Z,84.00
2018-02-15T06:43:54.973Z,84.10
2018-02-15T06:44:28.645Z,84.10
2018-02-15T06:45:02.332Z,84.20
2018-02-15T06:45:36.039Z,84.20
2018-02-15T06:46:09.737Z,84.20
2018-02-15T06:46:43.449Z,84.20
2018-02-15T06:47:17.109Z,84.20
2018-02-15T06:47:50.785Z,84.30
2018-02-15T06:48:24.474Z,84.30
2018-02-15T06:48:58.150Z,84.40
2018-02-15T06:49:31.840Z,84.30
2018-02-15T06:50:05.504Z,84.40
2018-02-15T06:50:39.945Z,84.30
2018-02-15T06:51:13.622Z,84.30
2018-02-15T06:51:47.351Z,84.30
2018-02-15T06:52:21.038Z,84.20
2018-02-15T06:52:54.711Z,84.10
2018-02-15T06:53:28.382Z,83.90
2018-02-15T06:54:02.055Z,84.40
2018-02-15T06:54:36.497Z,83.70
2018-02-15T06:55:10.238Z,83.70
2018-02-15T06:55:43.918Z,83.60
2018-02-15T06:56:17.587Z,83.70
2018-02-15T06:56:51.285Z,83.70
2018-02-15T06:57:24.962Z,83.70
2018-02-15T06:57:58.649Z,83.60
2018-02-15T06:58:32.338Z,83.60
2018-02-15T06:59:06.027Z,83.50
2018-02-15T06:59:39.715Z,83.50
2018-02-15T07:00:13.406Z,83.50
2018-02-15T07:00:47.102Z,83.50
2018-02-15T07:01:20.797Z,83.50
2018-02-15T07:01:54.486Z,83.50
2018-02-15T07:02:28.163Z,83.50
2018-02-15T07:03:01.855Z,83.60
2018-02-15T07:03:35.514Z,83.60
2018-02-15T07:04:09.198Z,83.50
2018-02-15T07:04:42.866Z,83.50
2018-02-15T07:05:17.331Z,83.60
2018-02-15T07:05:51.001Z,83.60
2018-02-15T07:06:24.669Z,83.60
2018-02-15T07:06:59.117Z,83.60
2018-02-15T07:07:32.810Z,83.60
2018-02-15T07:08:06.494Z,83.50
2018-02-15T07:08:40.182Z,83.50
2018-02-15T07:09:13.863Z,83.50
2018-02-15T07:09:47.533Z,83.50
2018-02-15T07:10:21.220Z,83.50
2018-02-15T07:10:54.907Z,83.50
2018-02-15T07:11:28.622Z,83.50
2018-02-15T07:12:02.328Z,83.50
2018-02-15T07:12:36.001Z,83.40
2018-02-15T07:13:09.665Z,83.30
2018-02-15T07:13:44.113Z,83.50
2018-02-15T07:14:17.795Z,83.40
2018-02-15T07:14:51.471Z,83.40
2018-02-15T07:15:25.142Z,83.40